sensor_id;sensor_type;location;lat;lon;timestamp;temperature;humidity
25914;DHT22;13718;50.922;5.346;2022-08-21T00:01:06;16.50;99.90
25914;DHT22;13718;50.922;5.346;2022-08-21T00:03:35;16.50;99.90
25914;DHT22;13718;50.922;5.346;2022-08-21T00:06:02;16.50;99.90
25914;DHT22;13718;50.922;5.346;2022-08-21T00:08:28;16.50;99.90
25914;DHT22;13718;50.922;5.346;2022-08-21T00:10:53;16.50;99.90
25914;DHT22;13718;50.922;5.346;2022-08-21T00:13:19;16.40;99.90
25914;DHT22;13718;50.922;5.346;2022-08-21T00:15:46;16.30;99.90
25914;DHT22;13718;50.922;5.346;2022-08-21T00:18:11;16.20;99.90
25914;DHT22;13718;50.922;5.346;2022-08-21T00:20:38;16.10;99.90
25914;DHT22;13718;50.922;5.346;2022-08-21T00:23:04;16.10;99.90
25914;DHT22;13718;50.922;5.346;2022-08-21T00:25:30;16.00;99.90
25914;DHT22;13718;50.922;5.346;2022-08-21T00:27:56;16.00;99.90
25914;DHT22;13718;50.922;5.346;2022-08-21T00:30:23;15.90;99.90
25914;DHT22;13718;50.922;5.346;2022-08-21T00:32:50;15.90;99.90
25914;DHT22;13718;50.922;5.346;2022-08-21T00:35:19;15.90;99.90
25914;DHT22;13718;50.922;5.346;2022-08-21T00:37:44;15.90;99.90
25914;DHT22;13718;50.922;5.346;2022-08-21T00:40:15;15.90;99.90
25914;DHT22;13718;50.922;5.346;2022-08-21T00:42:41;15.90;99.90
25914;DHT22;13718;50.922;5.346;2022-08-21T00:45:08;15.90;99.90
25914;DHT22;13718;50.922;5.346;2022-08-21T00:47:34;15.90;99.90
25914;DHT22;13718;50.922;5.346;2022-08-21T00:49:59;15.90;99.90
25914;DHT22;13718;50.922;5.346;2022-08-21T00:52:28;16.10;99.90
25914;DHT22;13718;50.922;5.346;2022-08-21T00:54:57;16.10;99.90
25914;DHT22;13718;50.922;5.346;2022-08-21T00:57:27;16.10;99.90
25914;DHT22;13718;50.922;5.346;2022-08-21T00:59:56;16.10;99.90
25914;DHT22;13718;50.922;5.346;2022-08-21T01:02:22;16.10;99.90
25914;DHT22;13718;50.922;5.346;2022-08-21T01:04:48;16.00;99.90
25914;DHT22;13718;50.922;5.346;2022-08-21T01:07:14;16.00;99.90
25914;DHT22;13718;50.922;5.346;2022-08-21T01:09:41;16.00;99.90
25914;DHT22;13718;50.922;5.346;2022-08-21T01:12:07;16.00;99.90
25914;DHT22;13718;50.922;5.346;2022-08-21T01:14:33;15.90;99.90
25914;DHT22;13718;50.922;5.346;2022-08-21T01:17:00;15.90;99.90
25914;DHT22;13718;50.922;5.346;2022-08-21T01:19:26;15.90;99.90
25914;DHT22;13718;50.922;5.346;2022-08-21T01:21:53;15.90;99.90
25914;DHT22;13718;50.922;5.346;2022-08-21T01:24:20;15.80;99.90
25914;DHT22;13718;50.922;5.346;2022-08-21T01:26:46;15.80;99.90
25914;DHT22;13718;50.922;5.346;2022-08-21T01:29:39;15.80;99.90
25914;DHT22;13718;50.922;5.346;2022-08-21T01:32:10;15.80;99.90
25914;DHT22;13718;50.922;5.346;2022-08-21T01:34:40;15.80;99.90
25914;DHT22;13718;50.922;5.346;2022-08-21T01:37:05;15.80;99.90
25914;DHT22;13718;50.922;5.346;2022-08-21T01:39:32;15.90;99.90
25914;DHT22;13718;50.922;5.346;2022-08-21T01:41:57;15.90;99.90
25914;DHT22;13718;50.922;5.346;2022-08-21T01:44:24;15.90;99.90
25914;DHT22;13718;50.922;5.346;2022-08-21T01:46:51;15.90;99.90
25914;DHT22;13718;50.922;5.346;2022-08-21T01:49:17;15.80;99.90
25914;DHT22;13718;50.922;5.346;2022-08-21T01:51:43;15.70;99.90
25914;DHT22;13718;50.922;5.346;2022-08-21T01:54:08;15.70;99.90
25914;DHT22;13718;50.922;5.346;2022-08-21T01:56:39;15.60;99.90
25914;DHT22;13718;50.922;5.346;2022-08-21T01:59:06;15.50;99.90
25914;DHT22;13718;50.922;5.346;2022-08-21T02:01:31;15.40;99.90
25914;DHT22;13718;50.922;5.346;2022-08-21T02:03:57;15.40;99.90
25914;DHT22;13718;50.922;5.346;2022-08-21T02:06:25;15.50;99.90
25914;DHT22;13718;50.922;5.346;2022-08-21T02:08:51;15.40;99.90
25914;DHT22;13718;50.922;5.346;2022-08-21T02:11:17;15.40;99.90
25914;DHT22;13718;50.922;5.346;2022-08-21T02:13:43;15.40;99.90
25914;DHT22;13718;50.922;5.346;2022-08-21T02:16:09;15.40;99.90
25914;DHT22;13718;50.922;5.346;2022-08-21T02:18:35;15.40;99.90
25914;DHT22;13718;50.922;5.346;2022-08-21T02:21:02;15.40;99.90
25914;DHT22;13718;50.922;5.346;2022-08-21T02:23:28;15.50;99.90
25914;DHT22;13718;50.922;5.346;2022-08-21T02:25:58;15.40;99.90
25914;DHT22;13718;50.922;5.346;2022-08-21T02:28:24;15.40;99.90
25914;DHT22;13718;50.922;5.346;2022-08-21T02:30:51;15.40;99.90
25914;DHT22;13718;50.922;5.346;2022-08-21T02:33:16;15.30;99.90
25914;DHT22;13718;50.922;5.346;2022-08-21T02:35:44;15.30;99.90
25914;DHT22;13718;50.922;5.346;2022-08-21T02:38:15;15.20;99.90
25914;DHT22;13718;50.922;5.346;2022-08-21T02:40:43;15.20;99.90
25914;DHT22;13718;50.922;5.346;2022-08-21T02:43:09;15.20;99.90
25914;DHT22;13718;50.922;5.346;2022-08-21T02:45:36;15.20;99.90
25914;DHT22;13718;50.922;5.346;2022-08-21T02:48:05;15.20;99.90
25914;DHT22;13718;50.922;5.346;2022-08-21T02:50:34;15.20;99.90
25914;DHT22;13718;50.922;5.346;2022-08-21T02:53:00;15.20;99.90
25914;DHT22;13718;50.922;5.346;2022-08-21T02:55:28;15.10;99.90
25914;DHT22;13718;50.922;5.346;2022-08-21T02:57:56;15.10;99.90
25914;DHT22;13718;50.922;5.346;2022-08-21T03:00:23;15.10;99.90
25914;DHT22;13718;50.922;5.346;2022-08-21T03:02:49;15.10;99.90
25914;DHT22;13718;50.922;5.346;2022-08-21T03:05:16;15.10;99.90
25914;DHT22;13718;50.922;5.346;2022-08-21T03:07:43;15.10;99.90
25914;DHT22;13718;50.922;5.346;2022-08-21T03:10:10;15.10;99.90
25914;DHT22;13718;50.922;5.346;2022-08-21T03:12:36;15.00;99.90
25914;DHT22;13718;50.922;5.346;2022-08-21T03:15:07;15.00;99.90
25914;DHT22;13718;50.922;5.346;2022-08-21T03:17:34;15.00;99.90
25914;DHT22;13718;50.922;5.346;2022-08-21T03:20:00;15.00;99.90
25914;DHT22;13718;50.922;5.346;2022-08-21T03:22:26;15.00;99.90
25914;DHT22;13718;50.922;5.346;2022-08-21T03:24:52;15.00;99.90
25914;DHT22;13718;50.922;5.346;2022-08-21T03:27:18;15.00;99.90
25914;DHT22;13718;50.922;5.346;2022-08-21T03:29:44;15.00;99.90
25914;DHT22;13718;50.922;5.346;2022-08-21T03:32:10;15.00;99.90
25914;DHT22;13718;50.922;5.346;2022-08-21T03:34:36;15.00;99.90
25914;DHT22;13718;50.922;5.346;2022-08-21T03:37:03;14.90;99.90
25914;DHT22;13718;50.922;5.346;2022-08-21T03:39:29;14.90;99.90
25914;DHT22;13718;50.922;5.346;2022-08-21T03:41:55;14.90;99.90
25914;DHT22;13718;50.922;5.346;2022-08-21T03:44:20;14.90;99.90
25914;DHT22;13718;50.922;5.346;2022-08-21T03:46:46;14.90;99.90
25914;DHT22;13718;50.922;5.346;2022-08-21T03:49:12;14.80;99.90
25914;DHT22;13718;50.922;5.346;2022-08-21T03:51:37;14.80;99.90
25914;DHT22;13718;50.922;5.346;2022-08-21T03:54:03;14.80;99.90
25914;DHT22;13718;50.922;5.346;2022-08-21T03:56:29;14.80;99.90
25914;DHT22;13718;50.922;5.346;2022-08-21T03:58:55;14.80;99.90
25914;DHT22;13718;50.922;5.346;2022-08-21T04:01:20;14.80;99.90
25914;DHT22;13718;50.922;5.346;2022-08-21T04:03:46;14.90;99.90
25914;DHT22;13718;50.922;5.346;2022-08-21T04:06:12;14.80;99.90
25914;DHT22;13718;50.922;5.346;2022-08-21T04:08:37;14.80;99.90
25914;DHT22;13718;50.922;5.346;2022-08-21T04:11:03;14.80;99.90
25914;DHT22;13718;50.922;5.346;2022-08-21T04:13:30;14.80;99.90
25914;DHT22;13718;50.922;5.346;2022-08-21T04:15:56;14.80;99.90
25914;DHT22;13718;50.922;5.346;2022-08-21T04:18:23;14.80;99.90
25914;DHT22;13718;50.922;5.346;2022-08-21T04:20:51;14.90;99.90
25914;DHT22;13718;50.922;5.346;2022-08-21T04:23:19;14.80;99.90
25914;DHT22;13718;50.922;5.346;2022-08-21T04:25:45;14.70;99.90
25914;DHT22;13718;50.922;5.346;2022-08-21T04:28:10;14.70;99.90
25914;DHT22;13718;50.922;5.346;2022-08-21T04:30:36;14.60;99.90
25914;DHT22;13718;50.922;5.346;2022-08-21T04:33:01;14.60;99.90
25914;DHT22;13718;50.922;5.346;2022-08-21T04:35:28;14.60;99.90
25914;DHT22;13718;50.922;5.346;2022-08-21T04:37:55;14.60;99.90
25914;DHT22;13718;50.922;5.346;2022-08-21T04:40:23;14.50;99.90
25914;DHT22;13718;50.922;5.346;2022-08-21T04:42:58;14.50;99.90
25914;DHT22;13718;50.922;5.346;2022-08-21T04:45:31;14.50;99.90
25914;DHT22;13718;50.922;5.346;2022-08-21T04:48:00;14.40;99.90
25914;DHT22;13718;50.922;5.346;2022-08-21T04:50:35;14.40;99.90
25914;DHT22;13718;50.922;5.346;2022-08-21T04:53:03;14.40;99.90
25914;DHT22;13718;50.922;5.346;2022-08-21T04:55:29;14.40;99.90
25914;DHT22;13718;50.922;5.346;2022-08-21T04:57:55;14.40;99.90
25914;DHT22;13718;50.922;5.346;2022-08-21T05:00:23;14.40;99.90
25914;DHT22;13718;50.922;5.346;2022-08-21T05:02:50;14.40;99.90
25914;DHT22;13718;50.922;5.346;2022-08-21T05:05:19;14.50;99.90
25914;DHT22;13718;50.922;5.346;2022-08-21T05:07:45;14.50;99.90
25914;DHT22;13718;50.922;5.346;2022-08-21T05:10:13;14.70;99.90
25914;DHT22;13718;50.922;5.346;2022-08-21T05:12:39;14.70;99.90
25914;DHT22;13718;50.922;5.346;2022-08-21T05:15:07;14.70;99.90
25914;DHT22;13718;50.922;5.346;2022-08-21T05:17:33;14.80;99.90
25914;DHT22;13718;50.922;5.346;2022-08-21T05:19:58;15.00;99.90
25914;DHT22;13718;50.922;5.346;2022-08-21T05:22:24;15.10;99.90
25914;DHT22;13718;50.922;5.346;2022-08-21T05:24:51;15.20;99.90
25914;DHT22;13718;50.922;5.346;2022-08-21T05:27:16;15.20;99.90
25914;DHT22;13718;50.922;5.346;2022-08-21T05:29:42;15.20;99.90
25914;DHT22;13718;50.922;5.346;2022-08-21T05:32:09;15.30;99.90
25914;DHT22;13718;50.922;5.346;2022-08-21T05:34:35;15.30;99.90
25914;DHT22;13718;50.922;5.346;2022-08-21T05:37:01;15.40;99.90
25914;DHT22;13718;50.922;5.346;2022-08-21T05:39:28;15.50;99.90
25914;DHT22;13718;50.922;5.346;2022-08-21T05:41:53;15.60;99.90
25914;DHT22;13718;50.922;5.346;2022-08-21T05:44:19;15.70;99.90
25914;DHT22;13718;50.922;5.346;2022-08-21T05:46:44;15.70;99.90
25914;DHT22;13718;50.922;5.346;2022-08-21T05:49:11;15.80;99.90
25914;DHT22;13718;50.922;5.346;2022-08-21T05:51:38;16.00;99.90
25914;DHT22;13718;50.922;5.346;2022-08-21T05:54:04;16.10;99.90
25914;DHT22;13718;50.922;5.346;2022-08-21T05:56:30;16.20;99.90
25914;DHT22;13718;50.922;5.346;2022-08-21T05:58:55;16.30;99.90
25914;DHT22;13718;50.922;5.346;2022-08-21T06:01:21;16.40;99.90
25914;DHT22;13718;50.922;5.346;2022-08-21T06:03:47;16.60;99.90
25914;DHT22;13718;50.922;5.346;2022-08-21T06:06:13;16.70;99.90
25914;DHT22;13718;50.922;5.346;2022-08-21T06:08:38;16.90;99.90
25914;DHT22;13718;50.922;5.346;2022-08-21T06:11:05;17.20;99.90
25914;DHT22;13718;50.922;5.346;2022-08-21T06:13:31;17.90;99.90
25914;DHT22;13718;50.922;5.346;2022-08-21T06:16:11;19.40;99.90
25914;DHT22;13718;50.922;5.346;2022-08-21T06:18:37;20.90;99.90
25914;DHT22;13718;50.922;5.346;2022-08-21T06:21:03;21.40;99.90
25914;DHT22;13718;50.922;5.346;2022-08-21T06:23:29;21.70;99.90
25914;DHT22;13718;50.922;5.346;2022-08-21T06:25:55;22.20;99.90
25914;DHT22;13718;50.922;5.346;2022-08-21T06:28:21;22.50;99.90
25914;DHT22;13718;50.922;5.346;2022-08-21T06:30:47;22.50;99.90
25914;DHT22;13718;50.922;5.346;2022-08-21T06:33:13;22.40;99.90
25914;DHT22;13718;50.922;5.346;2022-08-21T06:35:39;22.20;99.90
25914;DHT22;13718;50.922;5.346;2022-08-21T06:38:05;21.80;99.90
25914;DHT22;13718;50.922;5.346;2022-08-21T06:40:31;21.50;99.90
25914;DHT22;13718;50.922;5.346;2022-08-21T06:42:58;21.20;99.90
25914;DHT22;13718;50.922;5.346;2022-08-21T06:45:24;20.90;99.90
25914;DHT22;13718;50.922;5.346;2022-08-21T06:47:49;20.70;99.90
25914;DHT22;13718;50.922;5.346;2022-08-21T06:50:15;20.60;99.90
25914;DHT22;13718;50.922;5.346;2022-08-21T06:52:40;20.50;99.90
25914;DHT22;13718;50.922;5.346;2022-08-21T06:55:10;20.30;99.90
25914;DHT22;13718;50.922;5.346;2022-08-21T06:57:36;20.30;99.90
25914;DHT22;13718;50.922;5.346;2022-08-21T07:00:05;20.30;99.90
25914;DHT22;13718;50.922;5.346;2022-08-21T07:02:31;20.30;99.90
25914;DHT22;13718;50.922;5.346;2022-08-21T07:04:59;20.40;99.90
25914;DHT22;13718;50.922;5.346;2022-08-21T07:07:24;20.40;99.90
25914;DHT22;13718;50.922;5.346;2022-08-21T07:09:50;20.40;99.90
25914;DHT22;13718;50.922;5.346;2022-08-21T07:12:15;20.50;99.90
25914;DHT22;13718;50.922;5.346;2022-08-21T07:14:41;20.60;99.90
25914;DHT22;13718;50.922;5.346;2022-08-21T07:17:07;20.60;99.90
25914;DHT22;13718;50.922;5.346;2022-08-21T07:19:50;20.60;99.90
25914;DHT22;13718;50.922;5.346;2022-08-21T07:22:18;20.80;99.90
25914;DHT22;13718;50.922;5.346;2022-08-21T07:24:45;20.90;99.90
25914;DHT22;13718;50.922;5.346;2022-08-21T07:27:11;21.10;99.90
25914;DHT22;13718;50.922;5.346;2022-08-21T07:29:36;21.20;99.90
25914;DHT22;13718;50.922;5.346;2022-08-21T07:32:03;21.30;99.90
25914;DHT22;13718;50.922;5.346;2022-08-21T07:34:28;21.50;99.90
25914;DHT22;13718;50.922;5.346;2022-08-21T07:36:54;21.80;99.90
25914;DHT22;13718;50.922;5.346;2022-08-21T07:39:20;22.50;99.90
25914;DHT22;13718;50.922;5.346;2022-08-21T07:41:45;23.20;99.90
25914;DHT22;13718;50.922;5.346;2022-08-21T07:44:11;23.80;99.90
25914;DHT22;13718;50.922;5.346;2022-08-21T07:46:36;24.00;99.80
25914;DHT22;13718;50.922;5.346;2022-08-21T07:49:02;24.70;99.00
25914;DHT22;13718;50.922;5.346;2022-08-21T07:51:28;25.50;97.50
25914;DHT22;13718;50.922;5.346;2022-08-21T07:53:56;26.30;96.30
25914;DHT22;13718;50.922;5.346;2022-08-21T07:56:23;27.10;94.60
25914;DHT22;13718;50.922;5.346;2022-08-21T07:58:48;28.10;92.50
25914;DHT22;13718;50.922;5.346;2022-08-21T08:01:14;29.20;89.50
25914;DHT22;13718;50.922;5.346;2022-08-21T08:03:40;30.10;85.20
25914;DHT22;13718;50.922;5.346;2022-08-21T08:06:06;30.60;82.40
25914;DHT22;13718;50.922;5.346;2022-08-21T08:08:34;31.50;78.60
25914;DHT22;13718;50.922;5.346;2022-08-21T08:10:59;32.00;75.30
25914;DHT22;13718;50.922;5.346;2022-08-21T08:13:26;32.10;72.20
25914;DHT22;13718;50.922;5.346;2022-08-21T08:15:52;32.40;71.40
25914;DHT22;13718;50.922;5.346;2022-08-21T08:18:17;32.90;69.50
25914;DHT22;13718;50.922;5.346;2022-08-21T08:20:43;33.40;68.40
25914;DHT22;13718;50.922;5.346;2022-08-21T08:23:11;33.20;67.50
25914;DHT22;13718;50.922;5.346;2022-08-21T08:25:36;33.30;66.20
25914;DHT22;13718;50.922;5.346;2022-08-21T08:28:03;33.70;65.20
25914;DHT22;13718;50.922;5.346;2022-08-21T08:30:29;34.00;63.70
25914;DHT22;13718;50.922;5.346;2022-08-21T08:32:55;34.00;63.00
25914;DHT22;13718;50.922;5.346;2022-08-21T08:35:22;34.10;61.60
25914;DHT22;13718;50.922;5.346;2022-08-21T08:37:48;34.10;60.70
25914;DHT22;13718;50.922;5.346;2022-08-21T08:40:31;34.60;60.00
25914;DHT22;13718;50.922;5.346;2022-08-21T08:42:58;35.10;58.90
25914;DHT22;13718;50.922;5.346;2022-08-21T08:45:25;35.60;57.60
25914;DHT22;13718;50.922;5.346;2022-08-21T08:48:04;35.70;56.90
25914;DHT22;13718;50.922;5.346;2022-08-21T08:50:55;36.00;55.90
25914;DHT22;13718;50.922;5.346;2022-08-21T08:53:25;36.40;55.10
25914;DHT22;13718;50.922;5.346;2022-08-21T08:55:54;36.20;54.50
25914;DHT22;13718;50.922;5.346;2022-08-21T08:58:32;36.30;54.00
25914;DHT22;13718;50.922;5.346;2022-08-21T09:01:00;35.90;53.80
25914;DHT22;13718;50.922;5.346;2022-08-21T09:03:27;35.30;54.40
25914;DHT22;13718;50.922;5.346;2022-08-21T09:11:09;33.70;56.60
25914;DHT22;13718;50.922;5.346;2022-08-21T09:21:48;34.10;56.00
25914;DHT22;13718;50.922;5.346;2022-08-21T09:29:29;30.40;62.40
25914;DHT22;13718;50.922;5.346;2022-08-21T09:31:56;29.40;64.70
25914;DHT22;13718;50.922;5.346;2022-08-21T09:34:28;28.80;66.60
25914;DHT22;13718;50.922;5.346;2022-08-21T09:36:54;28.30;68.10
25914;DHT22;13718;50.922;5.346;2022-08-21T09:39:37;28.10;69.20
25914;DHT22;13718;50.922;5.346;2022-08-21T09:42:05;27.80;69.10
25914;DHT22;13718;50.922;5.346;2022-08-21T09:44:34;27.40;70.50
25914;DHT22;13718;50.922;5.346;2022-08-21T09:47:04;27.10;71.50
25914;DHT22;13718;50.922;5.346;2022-08-21T09:49:36;27.00;72.20
25914;DHT22;13718;50.922;5.346;2022-08-21T09:52:03;26.80;73.40
25914;DHT22;13718;50.922;5.346;2022-08-21T09:54:39;26.70;73.80
25914;DHT22;13718;50.922;5.346;2022-08-21T09:57:12;26.60;73.60
25914;DHT22;13718;50.922;5.346;2022-08-21T10:00:24;26.60;73.90
25914;DHT22;13718;50.922;5.346;2022-08-21T10:02:50;26.60;73.80
25914;DHT22;13718;50.922;5.346;2022-08-21T10:05:26;26.60;73.30
25914;DHT22;13718;50.922;5.346;2022-08-21T10:07:52;26.40;75.10
25914;DHT22;13718;50.922;5.346;2022-08-21T10:10:26;26.30;74.10
25914;DHT22;13718;50.922;5.346;2022-08-21T10:18:22;26.40;74.50
25914;DHT22;13718;50.922;5.346;2022-08-21T10:21:27;26.40;74.80
25914;DHT22;13718;50.922;5.346;2022-08-21T10:26:49;26.30;74.90
25914;DHT22;13718;50.922;5.346;2022-08-21T10:32:19;26.10;74.00
25914;DHT22;13718;50.922;5.346;2022-08-21T10:34:59;26.00;74.40
25914;DHT22;13718;50.922;5.346;2022-08-21T10:41:12;26.10;74.50
25914;DHT22;13718;50.922;5.346;2022-08-21T10:46:47;26.10;74.50
25914;DHT22;13718;50.922;5.346;2022-08-21T10:52:36;26.20;75.20
25914;DHT22;13718;50.922;5.346;2022-08-21T10:55:18;26.30;74.50
25914;DHT22;13718;50.922;5.346;2022-08-21T10:57:52;26.40;74.80
25914;DHT22;13718;50.922;5.346;2022-08-21T11:00:22;26.40;73.80
25914;DHT22;13718;50.922;5.346;2022-08-21T11:03:13;26.30;73.20
25914;DHT22;13718;50.922;5.346;2022-08-21T11:05:50;26.50;73.60
25914;DHT22;13718;50.922;5.346;2022-08-21T11:08:28;26.50;73.70
25914;DHT22;13718;50.922;5.346;2022-08-21T11:13:53;26.40;74.00
25914;DHT22;13718;50.922;5.346;2022-08-21T11:16:37;26.50;74.20
25914;DHT22;13718;50.922;5.346;2022-08-21T11:19:13;26.60;74.50
25914;DHT22;13718;50.922;5.346;2022-08-21T11:21:54;26.60;73.60
25914;DHT22;13718;50.922;5.346;2022-08-21T11:27:43;26.50;73.90
25914;DHT22;13718;50.922;5.346;2022-08-21T11:30:11;26.40;74.00
25914;DHT22;13718;50.922;5.346;2022-08-21T11:40:49;26.20;75.30
25914;DHT22;13718;50.922;5.346;2022-08-21T11:45:56;25.90;76.20
25914;DHT22;13718;50.922;5.346;2022-08-21T11:48:40;25.90;76.40
25914;DHT22;13718;50.922;5.346;2022-08-21T11:51:30;25.90;77.00
25914;DHT22;13718;50.922;5.346;2022-08-21T11:54:08;25.90;77.00
25914;DHT22;13718;50.922;5.346;2022-08-21T11:56:46;25.90;77.30
25914;DHT22;13718;50.922;5.346;2022-08-21T12:00:27;25.90;77.50
25914;DHT22;13718;50.922;5.346;2022-08-21T12:02:25;26.10;77.20
25914;DHT22;13718;50.922;5.346;2022-08-21T12:05:00;26.10;76.30
25914;DHT22;13718;50.922;5.346;2022-08-21T12:07:40;26.10;76.30
25914;DHT22;13718;50.922;5.346;2022-08-21T12:10:16;26.00;76.40
25914;DHT22;13718;50.922;5.346;2022-08-21T12:12:44;26.00;77.00
25914;DHT22;13718;50.922;5.346;2022-08-21T12:18:03;26.30;76.50
25914;DHT22;13718;50.922;5.346;2022-08-21T12:23:24;26.60;74.60
25914;DHT22;13718;50.922;5.346;2022-08-21T12:28:50;26.90;73.90
25914;DHT22;13718;50.922;5.346;2022-08-21T12:31:26;27.00;73.10
25914;DHT22;13718;50.922;5.346;2022-08-21T12:34:04;26.90;73.20
25914;DHT22;13718;50.922;5.346;2022-08-21T12:36:56;26.70;73.50
25914;DHT22;13718;50.922;5.346;2022-08-21T12:39:26;26.70;73.20
25914;DHT22;13718;50.922;5.346;2022-08-21T12:41:56;26.50;72.00
25914;DHT22;13718;50.922;5.346;2022-08-21T12:44:34;26.40;72.10
25914;DHT22;13718;50.922;5.346;2022-08-21T12:47:12;26.40;72.80
25914;DHT22;13718;50.922;5.346;2022-08-21T12:49:51;26.40;73.10
25914;DHT22;13718;50.922;5.346;2022-08-21T12:52:25;26.30;73.40
25914;DHT22;13718;50.922;5.346;2022-08-21T12:54:53;26.30;73.10
25914;DHT22;13718;50.922;5.346;2022-08-21T12:57:24;26.30;72.30
25914;DHT22;13718;50.922;5.346;2022-08-21T12:59:55;26.30;72.70
25914;DHT22;13718;50.922;5.346;2022-08-21T13:02:24;26.30;72.60
25914;DHT22;13718;50.922;5.346;2022-08-21T13:04:50;26.40;71.00
25914;DHT22;13718;50.922;5.346;2022-08-21T13:07:28;26.40;71.60
25914;DHT22;13718;50.922;5.346;2022-08-21T13:10:02;26.40;72.00
25914;DHT22;13718;50.922;5.346;2022-08-21T13:12:28;26.60;71.90
25914;DHT22;13718;50.922;5.346;2022-08-21T13:14:57;26.50;72.20
25914;DHT22;13718;50.922;5.346;2022-08-21T13:17:24;26.40;72.30
25914;DHT22;13718;50.922;5.346;2022-08-21T13:19:59;26.50;70.00
25914;DHT22;13718;50.922;5.346;2022-08-21T13:22:26;26.50;70.10
25914;DHT22;13718;50.922;5.346;2022-08-21T13:24:52;26.30;70.50
25914;DHT22;13718;50.922;5.346;2022-08-21T13:27:25;26.10;70.70
25914;DHT22;13718;50.922;5.346;2022-08-21T13:30:04;26.10;71.20
25914;DHT22;13718;50.922;5.346;2022-08-21T13:32:31;26.10;71.00
25914;DHT22;13718;50.922;5.346;2022-08-21T13:34:59;26.20;70.40
25914;DHT22;13718;50.922;5.346;2022-08-21T13:37:32;26.20;71.20
25914;DHT22;13718;50.922;5.346;2022-08-21T13:39:57;26.20;71.50
25914;DHT22;13718;50.922;5.346;2022-08-21T13:42:23;26.30;70.90
25914;DHT22;13718;50.922;5.346;2022-08-21T13:44:52;26.30;70.40
25914;DHT22;13718;50.922;5.346;2022-08-21T13:47:18;26.50;70.00
25914;DHT22;13718;50.922;5.346;2022-08-21T13:49:47;26.70;69.70
25914;DHT22;13718;50.922;5.346;2022-08-21T13:52:22;26.90;69.80
25914;DHT22;13718;50.922;5.346;2022-08-21T13:57:32;26.70;71.10
25914;DHT22;13718;50.922;5.346;2022-08-21T14:00:16;26.70;70.80
25914;DHT22;13718;50.922;5.346;2022-08-21T14:02:46;26.80;69.90
25914;DHT22;13718;50.922;5.346;2022-08-21T14:05:25;26.80;69.40
25914;DHT22;13718;50.922;5.346;2022-08-21T14:08:03;26.90;68.70
25914;DHT22;13718;50.922;5.346;2022-08-21T14:10:30;26.90;70.30
25914;DHT22;13718;50.922;5.346;2022-08-21T14:15:27;27.00;70.80
25914;DHT22;13718;50.922;5.346;2022-08-21T14:17:54;27.00;70.00
25914;DHT22;13718;50.922;5.346;2022-08-21T14:20:34;27.00;69.70
25914;DHT22;13718;50.922;5.346;2022-08-21T14:23:00;26.90;69.90
25914;DHT22;13718;50.922;5.346;2022-08-21T14:25:27;26.80;70.00
25914;DHT22;13718;50.922;5.346;2022-08-21T14:28:02;26.70;70.00
25914;DHT22;13718;50.922;5.346;2022-08-21T14:30:35;26.70;69.70
25914;DHT22;13718;50.922;5.346;2022-08-21T14:33:03;26.80;69.40
25914;DHT22;13718;50.922;5.346;2022-08-21T14:35:29;26.80;69.20
25914;DHT22;13718;50.922;5.346;2022-08-21T14:37:55;26.80;69.10
25914;DHT22;13718;50.922;5.346;2022-08-21T14:40:23;26.90;69.60
25914;DHT22;13718;50.922;5.346;2022-08-21T14:42:50;27.00;69.60
25914;DHT22;13718;50.922;5.346;2022-08-21T14:45:17;27.20;68.90
25914;DHT22;13718;50.922;5.346;2022-08-21T14:47:43;27.30;68.50
25914;DHT22;13718;50.922;5.346;2022-08-21T14:50:11;27.40;68.70
25914;DHT22;13718;50.922;5.346;2022-08-21T14:52:37;27.60;68.40
25914;DHT22;13718;50.922;5.346;2022-08-21T14:55:04;27.70;68.50
25914;DHT22;13718;50.922;5.346;2022-08-21T14:57:32;27.70;68.40
25914;DHT22;13718;50.922;5.346;2022-08-21T14:59:58;27.60;68.30
25914;DHT22;13718;50.922;5.346;2022-08-21T15:02:25;27.60;67.90
25914;DHT22;13718;50.922;5.346;2022-08-21T15:04:50;27.60;68.20
25914;DHT22;13718;50.922;5.346;2022-08-21T15:07:16;27.60;67.90
25914;DHT22;13718;50.922;5.346;2022-08-21T15:09:41;27.50;67.90
25914;DHT22;13718;50.922;5.346;2022-08-21T15:12:07;27.60;68.30
25914;DHT22;13718;50.922;5.346;2022-08-21T15:14:36;27.60;67.70
25914;DHT22;13718;50.922;5.346;2022-08-21T15:17:04;27.50;68.00
25914;DHT22;13718;50.922;5.346;2022-08-21T15:19:30;27.40;68.60
25914;DHT22;13718;50.922;5.346;2022-08-21T15:21:56;27.40;69.10
25914;DHT22;13718;50.922;5.346;2022-08-21T15:24:22;27.40;69.30
25914;DHT22;13718;50.922;5.346;2022-08-21T15:26:48;27.30;69.10
25914;DHT22;13718;50.922;5.346;2022-08-21T15:29:13;27.10;70.00
25914;DHT22;13718;50.922;5.346;2022-08-21T15:31:57;27.10;69.40
25914;DHT22;13718;50.922;5.346;2022-08-21T15:34:25;27.10;69.50
25914;DHT22;13718;50.922;5.346;2022-08-21T15:36:50;27.10;69.70
25914;DHT22;13718;50.922;5.346;2022-08-21T15:39:16;27.10;69.40
25914;DHT22;13718;50.922;5.346;2022-08-21T15:41:43;27.10;69.50
25914;DHT22;13718;50.922;5.346;2022-08-21T15:44:10;27.10;69.30
25914;DHT22;13718;50.922;5.346;2022-08-21T15:46:38;27.20;69.30
25914;DHT22;13718;50.922;5.346;2022-08-21T15:49:04;27.10;69.10
25914;DHT22;13718;50.922;5.346;2022-08-21T15:51:29;27.10;69.20
25914;DHT22;13718;50.922;5.346;2022-08-21T15:53:55;27.10;69.30
25914;DHT22;13718;50.922;5.346;2022-08-21T15:56:35;27.00;69.90
25914;DHT22;13718;50.922;5.346;2022-08-21T15:59:04;27.00;70.10
25914;DHT22;13718;50.922;5.346;2022-08-21T16:01:30;26.90;70.10
25914;DHT22;13718;50.922;5.346;2022-08-21T16:03:56;27.00;70.20
25914;DHT22;13718;50.922;5.346;2022-08-21T16:06:22;27.00;70.00
25914;DHT22;13718;50.922;5.346;2022-08-21T16:08:48;27.10;70.00
25914;DHT22;13718;50.922;5.346;2022-08-21T16:11:14;27.10;69.20
25914;DHT22;13718;50.922;5.346;2022-08-21T16:13:42;27.10;69.40
25914;DHT22;13718;50.922;5.346;2022-08-21T16:16:10;27.20;69.50
25914;DHT22;13718;50.922;5.346;2022-08-21T16:18:36;27.10;69.80
25914;DHT22;13718;50.922;5.346;2022-08-21T16:21:02;27.10;69.40
25914;DHT22;13718;50.922;5.346;2022-08-21T16:23:28;27.00;69.90
25914;DHT22;13718;50.922;5.346;2022-08-21T16:25:53;26.90;69.50
25914;DHT22;13718;50.922;5.346;2022-08-21T16:28:20;26.90;69.70
25914;DHT22;13718;50.922;5.346;2022-08-21T16:30:48;26.80;69.80
25914;DHT22;13718;50.922;5.346;2022-08-21T16:33:38;26.70;70.30
25914;DHT22;13718;50.922;5.346;2022-08-21T16:36:06;26.60;70.10
25914;DHT22;13718;50.922;5.346;2022-08-21T16:38:33;26.40;70.20
25914;DHT22;13718;50.922;5.346;2022-08-21T16:41:01;26.30;70.30
25914;DHT22;13718;50.922;5.346;2022-08-21T16:43:28;26.20;70.90
25914;DHT22;13718;50.922;5.346;2022-08-21T16:45:56;26.00;71.30
25914;DHT22;13718;50.922;5.346;2022-08-21T16:48:22;25.90;71.80
25914;DHT22;13718;50.922;5.346;2022-08-21T16:50:48;25.80;72.30